McGrath, AK

3:38 AM AKDT on July 14, 2014 (GMT -0800)
Tatalina (PATL) Elev 965 ft | 62.89 °N, 155.98 °W | Change Station

Current weather conditions updated 43 minutes ago

Mostly Cloudy
Mostly Cloudy
55 °F
Feels Like 55 °F
N
9
Wind Variable Wind from WSW

Today is forecast to be Cooler than yesterday. Late day light rain.

Today
High -- | Low -- °F
--% Chance of Precip.
Yesterday
High -- | Low -- °F
Precip. -- in
4:49 AM 0:00 AM
Waning Gibbous, 94% visible
Pressure 30.20 in
Visibility 10.0 miles
Clouds Mostly Cloudy 6500 ft
Dew Point 45 °F
Humidity 68%
Rainfall 0.00 in
Snow Depth Not available.
UV 0 out of 12
Pollen Not available.
Air Quality Not available.
Flu Activity Sporadic
METAR PATL 141055Z AUTO 25008KT 10SM BKN065 13/07 A3020 RMK AO2 SLP225 T01290072 $

More Conditions Fewer Conditions

Pressure 30.20 in
Visibility 10.0 miles
Clouds Mostly Cloudy 6500 ft
Dew Point 45 °F
Humidity 68%
Rainfall 0.00 in
Snow Depth Not available.
UV 0 out of 12
Pollen Not available.
Air Quality Not available.
Flu Activity Sporadic
METAR PATL 141055Z AUTO 25008KT 10SM BKN065 13/07 A3020 RMK AO2 SLP225 T01290072 $

More Conditions Fewer Conditions

10-Day Weather Forecast

Almanac

Astronomy

Jul. 14, 2014 Rise Set
Actual Time 4:49 AM AKDT 12:00 AM AKDT
Civil Twilight 2:58 AM AKDT 1:53 AM AKDT
Nautical Twilight Sun does not rise Sun does not rise
Astronomical Twilight Sun does not rise Sun does not rise
Moon 11:56 PM AKDT 9:12 AM AKDT
Length of Visible Light 22h 55m
Length of Day
19h 10m
Tomorrow will be 4m 52s shorter.
Waning Gibbous, 94% of the Moon is Illuminated
Today
Waning Gibbous
Jul 18
Last Quarter
Jul 26
New
Aug 3
First Quarter
Aug 10
Full

Today's Extremes

State Highs State Lows

Community

WunderPhotos

Upload Photos

1,733,611 photos uploaded!

Nearby

Snow Depth

Station Depth Elevation
Susitna Valley High 2 in 375 ft
Point Mackenzie 1 in 200 ft
Indian Pass 2 in 2300 ft
Summit Creek 0 in 1400 ft
Turnagain Pass 0 in 1880 ft

Earthquake Activity

City Distance Mag. Time & Date
No recent earthquake activity has been reported nearby.
Minimum magnitude displayed is 2.5.

Coastal Water Temperatures

Place Temperature
No Stations Reporting

Nearby Weather Stations

There are no personal weather stations in this area.